ADDS METAR Data INFO
IDs: Format: Raw Decoded Include TAF

Data at: 1114 UTC 13 Dec 2017

KPIA 131054Z 18008KT 10SM CLR M04/M11 A2973 RMK AO2 SLP075 T10391111 $
KPIA 130954Z 19008KT 10SM BKN080 M04/M12 A2978 RMK AO2 PRESFR SLP091 T10391122 $
KPIA 130854Z 20010KT 10SM OVC080 M04/M13 A2982 RMK AO2 SLP106 T10391133 57040 $
KPIA 130754Z 19006KT 10SM OVC080 M04/M12 A2986 RMK AO2 SLP120 T10441122 $
KPIA 130654Z 20005KT 10SM OVC090 M04/M12 A2990 RMK AO2 SLP134 T10441122 $
KPIA 130554Z 20004KT 10SM OVC100 M04/M13 A2994 RMK AO2 SLP148 T10441128 11033 21061 400111072 58030 $
KPIA 130454Z 20004KT 10SM CLR M06/M13 A2998 RMK AO2 SLP163 T10611133 $
KPIA 130354Z 22005KT 10SM FEW075 M05/M13 A3000 RMK AO2 SLP170 T10501133 $
KPIA 130254Z 24004KT 10SM FEW060 OVC075 M03/M14 A3003 RMK AO2 SLP180 T10331139 58017 $
KPIA 130154Z 26005KT 10SM OVC060 M03/M14 A3006 RMK AO2 SLP189 T10331144 $
KPIA 130054Z 26005KT 10SM FEW049 BKN055 OVC075 M04/M16 A3008 RMK AO2 SLP195 T10391156 $
KPIA 122354Z 27004KT 10SM BKN085 M04/M16 A3008 RMK AO2 SLP197 T10441156 11011 21044 56010 $
KPIA 122254Z 29006KT 10SM BKN120 M03/M17 A3009 RMK AO2 SLP198 T10281167
KPIA 122154Z 29006KT 10SM CLR M02/M17 A3010 RMK AO2 SLP200 T10221167
KPIA 122054Z 30008G16KT 10SM CLR M02/M15 A3012 RMK AO2 SLP206 T10171150 56012
KPIA 121954Z 28011G21KT 10SM CLR M02/M15 A3012 RMK AO2 SLP206 T10171150 $
KPIA 121854Z 30010G17KT 10SM CLR M02/M16 A3013 RMK AO2 SLP210 T10221156 $
KPIA 121754Z 32009G21KT 10SM CLR M03/M14 A3015 RMK AO2 SLP217 T10331144 11033 21072 $
KPIA 121654Z 31012G20KT 10SM CLR M04/M13 A3020 RMK AO2 SLP232 T10441133 $
KPIA 121554Z 32010G19KT 10SM CLR M05/M13 A3020 RMK AO2 SLP232 T10501133 $
KPIA 121454Z 33011G19KT 10SM CLR M06/M12 A3019 RMK AO2 SLP232 T10611122 53015
KPIA 121354Z 31008G16KT 10SM CLR M07/M11 A3017 RMK AO2 SLP226 T10671111 $
KPIA 121254Z 32009G17KT 10SM CLR M07/M11 A3017 RMK AO2 SLP223 T10671111 $
KPIA 121154Z 33008G19KT 10SM CLR M06/M11 A3015 RMK AO2 SLP215 T10611111 10011 21061 52021 $
KPIA 121054Z 33014G21KT 10SM CLR M05/M10 A3013 RMK AO2 PK WND 32026/1028 SLP210 T10501100 $
KPIA 120954Z 35012G22KT 10SM CLR M04/M09 A3010 RMK AO2 SLP199 T10391094 $
KPIA 120854Z 34012G22KT 10SM FEW039 M03/M09 A3008 RMK AO2 PK WND 32026/0801 SLP192 T10281089 53023 $
KPIA 120754Z 32013G28KT 10SM OVC032 00/M07 A3006 RMK AO2 PK WND 31031/0723 SLP183 T00001067 $
KPIA 120654Z 33013G29KT 10SM OVC033 01/M07 A3002 RMK AO2 PK WND 31030/0639 SLP171 T00061067 $
KPIA 120554Z 34009G20KT 10SM OVC025 01/M04 A3002 RMK AO2 SLP169 60000 T00111039 10044 20011 400941050 51030 $
KPIA 120454Z 34010G18KT 10SM OVC024 02/M03 A3000 RMK AO2 SLP162 T00171028
KPIA 120354Z 34010G22KT 300V360 10SM OVC017 02/M02 A2997 RMK AO2 PK WND 35029/0322 SLP155 T00221017
KPIA 120310Z 33012G22KT 10SM OVC016 03/M01 A2994 RMK AO2 T00281006
KPIA 120254Z 33013G24KT 10SM OVC012 03/00 A2993 RMK AO2 PK WND 34026/0202 SLP140 60000 T00280000 52034
KPIA 120154Z 32011G24KT 10SM OVC011 02/01 A2989 RMK AO2 RAB03E25 SLP128 P0000 T00220006
KPIA 120054Z 31010G21KT 10SM OVC014 03/00 A2986 RMK AO2 SLP118 T00280000
KPIA 120043Z 32011G20KT 10SM OVC014 03/00 A2985 RMK AO2 T00280000
KPIA 112354Z 33006KT 10SM OVC028 04/M02 A2983 RMK AO2 SLP106 60000 T00441017 10094 20044 53047